createdAt,value
2022-12-15T00:02:35.683Z,18.40
2022-12-15T00:05:21.824Z,18.30
2022-12-15T00:08:07.252Z,18.30
2022-12-15T00:10:52.671Z,18.20
2022-12-15T00:13:38.068Z,18.20
2022-12-15T00:16:23.364Z,18.10
2022-12-15T00:19:08.430Z,18.00
2022-12-15T00:21:53.943Z,18.00
2022-12-15T00:24:39.723Z,17.90
2022-12-15T00:27:25.129Z,17.90
2022-12-15T00:30:10.632Z,17.80
2022-12-15T00:32:55.926Z,17.80
2022-12-15T00:35:41.313Z,17.70
2022-12-15T00:38:28.338Z,17.70
2022-12-15T00:41:00.991Z,17.60
2022-12-15T00:43:29.383Z,17.60
2022-12-15T00:46:15.408Z,17.60
2022-12-15T00:48:42.951Z,17.50
2022-12-15T00:51:10.110Z,17.40
2022-12-15T00:53:55.784Z,17.40
2022-12-15T00:56:41.308Z,17.40
2022-12-15T00:59:26.754Z,17.30
2022-12-15T01:02:12.514Z,17.30
2022-12-15T01:04:57.851Z,17.20
2022-12-15T01:07:43.365Z,17.20
2022-12-15T01:10:28.841Z,17.20
2022-12-15T01:13:14.319Z,17.10
2022-12-15T01:15:59.911Z,17.10
2022-12-15T01:18:49.537Z,17.00
2022-12-15T01:21:16.429Z,17.00
2022-12-15T01:23:43.137Z,16.90
2022-12-15T01:26:09.910Z,16.90
2022-12-15T01:28:36.738Z,16.90
2022-12-15T01:31:11.469Z,16.90
2022-12-15T01:33:39.540Z,16.80
2022-12-15T01:36:06.569Z,16.80
2022-12-15T01:38:33.417Z,16.80
2022-12-15T01:41:06.526Z,16.70
2022-12-15T01:43:37.169Z,16.70
2022-12-15T01:46:08.603Z,16.70
2022-12-15T01:48:54.483Z,16.60
2022-12-15T01:51:32.524Z,16.60
2022-12-15T01:54:06.581Z,16.60
2022-12-15T01:56:37.952Z,16.50
2022-12-15T01:59:08.780Z,16.50
2022-12-15T02:01:35.690Z,16.50
2022-12-15T02:04:03.487Z,16.40
2022-12-15T02:06:30.519Z,16.40
2022-12-15T02:08:59.858Z,16.40
2022-12-15T02:11:32.372Z,16.30
2022-12-15T02:14:02.266Z,16.30
2022-12-15T02:16:38.865Z,16.30
2022-12-15T02:19:57.020Z,16.20
2022-12-15T02:22:47.594Z,16.20
2022-12-15T02:25:26.260Z,16.20
2022-12-15T02:27:59.206Z,16.10
2022-12-15T02:30:34.869Z,16.10
2022-12-15T02:33:25.486Z,16.10
2022-12-15T02:36:02.121Z,16.00
2022-12-15T02:38:38.074Z,16.00
2022-12-15T02:41:06.703Z,15.90
2022-12-15T02:43:36.973Z,15.90
2022-12-15T02:46:31.868Z,15.90
2022-12-15T02:49:13.172Z,15.80
2022-12-15T02:51:44.660Z,15.80
2022-12-15T02:54:40.144Z,15.70
2022-12-15T02:57:56.521Z,15.70
2022-12-15T03:00:23.197Z,15.70
2022-12-15T03:02:54.868Z,15.60
2022-12-15T03:05:24.393Z,15.60
2022-12-15T03:07:53.075Z,15.60
2022-12-15T03:10:23.411Z,15.60
2022-12-15T03:12:50.378Z,15.50
2022-12-15T03:15:18.381Z,15.50
2022-12-15T03:17:45.124Z,15.50
2022-12-15T03:20:12.045Z,15.50
2022-12-15T03:22:39.222Z,15.50
2022-12-15T03:25:06.361Z,15.40
2022-12-15T03:27:33.083Z,15.40
2022-12-15T03:29:59.909Z,15.40
2022-12-15T03:32:26.593Z,15.30
2022-12-15T03:34:53.250Z,15.40
2022-12-15T03:37:19.967Z,15.30
2022-12-15T03:39:47.703Z,15.30
2022-12-15T03:42:14.508Z,15.30
2022-12-15T03:44:41.184Z,15.20
2022-12-15T03:47:07.863Z,15.20
2022-12-15T03:49:34.568Z,15.20
2022-12-15T03:52:01.241Z,15.20
2022-12-15T03:54:27.960Z,15.20
2022-12-15T03:56:54.669Z,15.10
2022-12-15T03:59:21.335Z,15.10
2022-12-15T04:01:49.157Z,15.10
2022-12-15T04:04:16.194Z,15.10
2022-12-15T04:06:42.899Z,15.10
2022-12-15T04:09:09.609Z,15.00
2022-12-15T04:11:36.301Z,15.00
2022-12-15T04:14:03.007Z,15.00
2022-12-15T04:16:29.836Z,15.00
2022-12-15T04:19:16.876Z,15.00
2022-12-15T04:21:43.599Z,14.90
2022-12-15T04:24:28.943Z,14.90
2022-12-15T04:27:14.303Z,14.90
2022-12-15T04:29:59.854Z,14.90
2022-12-15T04:32:45.347Z,14.80
2022-12-15T04:35:35.536Z,14.80
2022-12-15T04:38:20.979Z,14.80
2022-12-15T04:41:06.430Z,14.80
2022-12-15T04:43:51.927Z,14.70
2022-12-15T04:46:37.569Z,14.70
2022-12-15T04:49:22.709Z,14.70
2022-12-15T04:52:08.078Z,14.70
2022-12-15T04:54:53.385Z,14.70
2022-12-15T04:57:38.853Z,14.60
2022-12-15T05:00:25.011Z,14.60
2022-12-15T05:03:15.114Z,14.60
2022-12-15T05:06:03.343Z,14.60
2022-12-15T05:08:50.199Z,14.60
2022-12-15T05:11:35.588Z,14.60
2022-12-15T05:14:21.044Z,14.50
2022-12-15T05:17:06.616Z,14.50
2022-12-15T05:19:51.787Z,14.50
2022-12-15T05:22:37.232Z,14.50
2022-12-15T05:25:22.680Z,14.50
2022-12-15T05:28:08.191Z,14.40
2022-12-15T05:30:53.784Z,14.40
2022-12-15T05:33:20.440Z,14.40
2022-12-15T05:35:47.151Z,14.40
2022-12-15T05:38:13.877Z,14.40
2022-12-15T05:40:40.602Z,14.40
2022-12-15T05:43:07.291Z,14.30
2022-12-15T05:45:33.997Z,14.30
2022-12-15T05:48:00.648Z,14.30
2022-12-15T05:50:27.342Z,14.30
2022-12-15T05:52:58.238Z,14.30
2022-12-15T05:55:25.054Z,14.30
2022-12-15T05:57:53.489Z,14.30
2022-12-15T06:00:21.051Z,14.30
2022-12-15T06:02:49.992Z,14.20
2022-12-15T06:05:17.101Z,14.20
2022-12-15T06:07:43.816Z,14.20
2022-12-15T06:10:11.392Z,14.20
2022-12-15T06:12:38.147Z,14.20
2022-12-15T06:15:05.483Z,14.20
2022-12-15T06:17:32.372Z,14.20
2022-12-15T06:19:59.105Z,14.10
2022-12-15T06:22:25.808Z,14.10
2022-12-15T06:24:52.570Z,14.10
2022-12-15T06:27:19.873Z,14.10
2022-12-15T06:29:46.637Z,14.10
2022-12-15T06:32:13.347Z,14.10
2022-12-15T06:34:40.050Z,14.10
2022-12-15T06:37:06.776Z,14.00
2022-12-15T06:39:33.482Z,14.00
2022-12-15T06:42:00.169Z,14.00
2022-12-15T06:44:26.888Z,14.00
2022-12-15T06:46:53.629Z,14.00
2022-12-15T06:49:20.428Z,14.00
2022-12-15T06:51:49.677Z,14.00
2022-12-15T06:54:16.336Z,14.00
2022-12-15T06:56:43.105Z,13.90
2022-12-15T06:59:11.178Z,13.90
2022-12-15T07:01:38.521Z,13.90
2022-12-15T07:04:05.969Z,13.90
2022-12-15T07:06:37.450Z,13.90
2022-12-15T07:09:11.473Z,13.90
2022-12-15T07:11:38.184Z,13.90
2022-12-15T07:14:05.170Z,13.90
2022-12-15T07:16:32.234Z,13.80
2022-12-15T07:18:59.249Z,13.80
2022-12-15T07:21:26.039Z,13.80
2022-12-15T07:23:55.211Z,13.80
2022-12-15T07:26:23.524Z,13.80
2022-12-15T07:28:50.357Z,13.80
2022-12-15T07:31:17.892Z,13.80
2022-12-15T07:33:44.856Z,13.80
2022-12-15T07:36:11.706Z,13.80
2022-12-15T07:38:38.444Z,13.80
2022-12-15T07:41:08.008Z,13.70
2022-12-15T07:43:35.788Z,13.70
2022-12-15T07:46:07.008Z,13.70
2022-12-15T07:48:39.785Z,13.70
2022-12-15T07:51:12.286Z,13.70
2022-12-15T07:53:42.378Z,13.70
2022-12-15T07:56:10.436Z,13.60
2022-12-15T07:58:38.156Z,13.60
2022-12-15T08:01:10.644Z,13.60
2022-12-15T08:03:38.679Z,13.60
2022-12-15T08:06:07.465Z,13.60
2022-12-15T08:08:35.702Z,13.60
2022-12-15T08:11:07.557Z,13.60
2022-12-15T08:16:22.113Z,13.60
2022-12-15T08:18:49.000Z,13.60
2022-12-15T08:21:15.943Z,13.60
2022-12-15T08:23:42.678Z,13.50
2022-12-15T08:26:15.378Z,13.60
2022-12-15T08:28:43.120Z,13.60
2022-12-15T08:31:16.672Z,13.60
2022-12-15T08:33:44.722Z,13.70
2022-12-15T08:36:13.664Z,13.80
2022-12-15T08:38:41.247Z,14.00
2022-12-15T08:41:14.011Z,14.10
2022-12-15T08:43:48.053Z,14.20
2022-12-15T08:46:24.341Z,14.30
2022-12-15T08:48:52.846Z,14.50
2022-12-15T08:51:21.367Z,14.60
2022-12-15T08:53:48.955Z,14.70
2022-12-15T08:56:18.567Z,14.70
2022-12-15T08:58:46.725Z,14.80
2022-12-15T09:01:24.167Z,14.90
2022-12-15T09:03:53.886Z,15.00
2022-12-15T09:06:30.409Z,15.00
2022-12-15T09:08:58.972Z,15.00
2022-12-15T09:11:26.860Z,15.10
2022-12-15T09:13:53.722Z,15.10
2022-12-15T09:16:21.462Z,15.10
2022-12-15T09:18:53.878Z,15.10
2022-12-15T09:21:26.038Z,15.20
2022-12-15T09:23:55.225Z,15.20
2022-12-15T09:26:23.377Z,15.20
2022-12-15T09:28:51.655Z,15.20
2022-12-15T09:31:24.616Z,15.20
2022-12-15T09:33:53.485Z,15.20
2022-12-15T09:36:20.652Z,15.20
2022-12-15T09:38:47.545Z,15.20
2022-12-15T09:41:14.783Z,15.20
2022-12-15T09:43:52.268Z,15.20
2022-12-15T09:46:37.587Z,15.20
2022-12-15T09:49:24.708Z,15.10
2022-12-15T09:52:10.331Z,15.10
2022-12-15T09:54:39.043Z,15.10
2022-12-15T09:57:15.346Z,15.10
2022-12-15T10:00:07.726Z,15.00
2022-12-15T10:03:07.235Z,15.00
2022-12-15T10:06:16.449Z,15.00
2022-12-15T10:09:02.231Z,15.00
2022-12-15T10:11:48.529Z,15.00
2022-12-15T10:14:43.003Z,14.90
2022-12-15T10:17:19.732Z,15.00
2022-12-15T10:19:52.330Z,14.90
2022-12-15T10:22:26.009Z,14.90
2022-12-15T10:25:11.061Z,14.90
2022-12-15T10:27:58.670Z,14.90
2022-12-15T10:30:25.710Z,14.90
2022-12-15T10:33:08.934Z,14.90
2022-12-15T10:35:36.883Z,14.80
2022-12-15T10:38:33.221Z,14.80
2022-12-15T10:41:03.475Z,14.80
2022-12-15T10:43:37.326Z,14.80
2022-12-15T10:46:31.959Z,14.80
2022-12-15T10:49:37.685Z,14.80
2022-12-15T10:53:28.064Z,14.70
2022-12-15T10:58:53.828Z,14.70
2022-12-15T11:01:35.795Z,14.60
2022-12-15T11:04:30.795Z,14.60
2022-12-15T11:06:59.811Z,14.60
2022-12-15T11:09:40.534Z,14.60
2022-12-15T11:12:45.653Z,14.60
2022-12-15T11:15:23.208Z,14.60
2022-12-15T11:18:12.693Z,14.60
2022-12-15T11:20:44.622Z,14.60
2022-12-15T11:23:24.677Z,14.50
2022-12-15T11:26:06.802Z,14.50
2022-12-15T11:28:50.941Z,14.50
2022-12-15T11:31:24.289Z,14.50
2022-12-15T11:33:55.583Z,14.50
2022-12-15T11:36:44.513Z,14.50
2022-12-15T11:39:47.483Z,14.50
2022-12-15T11:42:39.376Z,14.50
2022-12-15T11:45:36.409Z,14.40
2022-12-15T11:48:21.963Z,14.40
2022-12-15T11:50:52.413Z,14.40
2022-12-15T11:53:25.260Z,14.40
2022-12-15T11:56:03.242Z,14.40
2022-12-15T11:58:56.726Z,14.40
2022-12-15T12:05:04.019Z,14.30
2022-12-15T12:07:46.437Z,14.30
2022-12-15T12:10:24.903Z,14.30
2022-12-15T12:13:01.306Z,14.30
2022-12-15T12:15:43.201Z,14.30
2022-12-15T12:18:41.934Z,14.30
2022-12-15T12:21:13.259Z,14.30
2022-12-15T12:23:42.697Z,14.20
2022-12-15T12:26:32.030Z,14.20
2022-12-15T12:29:28.628Z,14.20
2022-12-15T12:32:09.792Z,14.20
2022-12-15T12:35:30.788Z,14.20
2022-12-15T12:41:12.269Z,14.20
2022-12-15T12:43:41.472Z,14.10
2022-12-15T12:46:25.457Z,14.10
2022-12-15T12:49:00.531Z,14.10
2022-12-15T12:51:37.570Z,14.10
2022-12-15T12:54:35.949Z,14.10
2022-12-15T12:57:41.715Z,14.10
2022-12-15T13:00:08.861Z,14.10
2022-12-15T13:02:37.961Z,14.10
2022-12-15T13:05:35.632Z,14.10
2022-12-15T13:08:05.100Z,14.10
2022-12-15T13:10:34.245Z,14.00
2022-12-15T13:13:31.835Z,14.00
2022-12-15T13:16:06.847Z,14.00
2022-12-15T13:19:06.960Z,14.00
2022-12-15T13:21:54.876Z,14.00
2022-12-15T13:24:41.318Z,14.00
2022-12-15T13:27:14.358Z,14.00
2022-12-15T13:30:10.367Z,14.00
2022-12-15T13:32:41.831Z,14.00
2022-12-15T13:35:14.771Z,13.90
2022-12-15T13:37:53.178Z,13.90
2022-12-15T13:40:22.812Z,13.90
2022-12-15T13:43:16.930Z,13.90
2022-12-15T13:45:53.622Z,13.90
2022-12-15T13:48:41.160Z,13.90
2022-12-15T13:51:30.046Z,13.90
2022-12-15T13:54:09.817Z,13.90
2022-12-15T13:56:47.646Z,13.90
2022-12-15T13:59:35.930Z,13.90
2022-12-15T14:02:03.077Z,13.90
2022-12-15T14:04:29.818Z,13.80
2022-12-15T14:07:05.625Z,13.80
2022-12-15T14:09:40.648Z,13.80
2022-12-15T14:12:13.664Z,13.80
2022-12-15T14:14:47.318Z,13.80
2022-12-15T14:17:17.895Z,13.80
2022-12-15T14:19:50.790Z,13.80
2022-12-15T14:25:25.508Z,13.80
2022-12-15T14:27:52.251Z,13.70
2022-12-15T14:30:23.335Z,13.70
2022-12-15T14:32:59.627Z,13.70
2022-12-15T14:35:40.003Z,13.70
2022-12-15T14:38:14.417Z,13.70
2022-12-15T14:40:42.510Z,13.70
2022-12-15T14:43:37.672Z,13.60
2022-12-15T14:46:16.129Z,13.60
2022-12-15T14:49:03.205Z,13.60
2022-12-15T14:51:39.377Z,13.60
2022-12-15T14:54:06.222Z,13.60
2022-12-15T14:56:32.935Z,13.60
2022-12-15T14:59:17.649Z,13.60
2022-12-15T15:01:58.234Z,13.60
2022-12-15T15:03:06.809Z,14.70
2022-12-15T15:03:10.262Z,14.20
2022-12-15T15:03:12.648Z,14.30
2022-12-15T15:03:14.309Z,13.80
2022-12-15T15:04:30.682Z,13.60
2022-12-15T15:07:00.559Z,13.60
2022-12-15T15:09:30.605Z,13.70
2022-12-15T15:12:04.700Z,13.80
2022-12-15T15:14:38.583Z,13.90
2022-12-15T15:17:14.660Z,14.00
2022-12-15T15:19:49.320Z,14.10
2022-12-15T15:22:33.806Z,14.20
2022-12-15T15:25:00.881Z,14.30
2022-12-15T15:27:35.647Z,14.50
2022-12-15T15:30:28.718Z,14.60
2022-12-15T15:32:59.519Z,14.80
2022-12-15T15:35:31.997Z,14.80
2022-12-15T15:38:03.895Z,14.90
2022-12-15T15:40:30.615Z,15.00
2022-12-15T15:42:57.298Z,15.10
2022-12-15T15:45:24.155Z,15.20
2022-12-15T15:47:56.542Z,15.20
2022-12-15T15:50:29.602Z,15.30
2022-12-15T15:52:57.121Z,15.30
2022-12-15T15:55:33.689Z,15.40
2022-12-15T15:58:12.687Z,15.40
2022-12-15T16:00:39.809Z,15.40
2022-12-15T16:03:07.071Z,15.40
2022-12-15T16:05:35.297Z,15.40
2022-12-15T16:08:03.780Z,15.40
2022-12-15T16:10:30.482Z,15.40
2022-12-15T16:13:00.753Z,15.40
2022-12-15T16:15:31.401Z,15.40
2022-12-15T16:17:59.257Z,15.40
2022-12-15T16:20:30.159Z,15.40
2022-12-15T16:23:03.316Z,15.40
2022-12-15T16:25:44.084Z,15.40
2022-12-15T16:28:22.286Z,15.40
2022-12-15T16:30:49.574Z,15.40
2022-12-15T16:33:17.199Z,15.30
2022-12-15T16:35:45.415Z,15.30
2022-12-15T16:38:26.108Z,15.30
2022-12-15T16:40:53.344Z,15.30
2022-12-15T16:43:25.649Z,15.30
2022-12-15T16:45:54.942Z,15.30
2022-12-15T16:48:21.855Z,15.20
2022-12-15T16:50:58.252Z,15.20
2022-12-15T16:53:27.712Z,15.20
2022-12-15T16:55:58.060Z,15.20
2022-12-15T16:58:26.981Z,15.20
2022-12-15T17:00:54.094Z,15.30
2022-12-15T17:03:31.150Z,15.40
2022-12-15T17:06:01.212Z,15.50
2022-12-15T17:08:42.799Z,15.50
2022-12-15T17:11:19.402Z,15.60
2022-12-15T17:13:51.077Z,15.70
2022-12-15T17:16:22.649Z,15.80
2022-12-15T17:18:49.949Z,15.90
2022-12-15T17:21:23.734Z,16.00
2022-12-15T17:23:55.495Z,16.10
2022-12-15T17:26:30.059Z,16.20
2022-12-15T17:29:20.417Z,16.30
2022-12-15T17:31:47.298Z,16.40
2022-12-15T17:34:26.955Z,16.50
2022-12-15T17:36:54.259Z,16.50
2022-12-15T17:39:22.273Z,16.60
2022-12-15T17:41:59.980Z,16.70
2022-12-15T17:44:35.072Z,16.80
2022-12-15T17:47:09.240Z,16.90
2022-12-15T17:49:38.425Z,16.90
2022-12-15T17:52:29.403Z,17.00
2022-12-15T17:54:57.238Z,17.10
2022-12-15T17:57:24.035Z,17.20
2022-12-15T17:59:50.756Z,17.30
2022-12-15T18:02:17.701Z,17.40
2022-12-15T18:04:44.666Z,17.50
2022-12-15T18:07:23.165Z,17.50
2022-12-15T18:09:51.904Z,17.70
2022-12-15T18:12:26.255Z,17.70
2022-12-15T18:14:54.390Z,17.90
2022-12-15T18:17:21.598Z,18.00
2022-12-15T18:19:48.828Z,18.10
2022-12-15T18:22:22.763Z,18.20
2022-12-15T18:24:51.682Z,18.40
2022-12-15T18:27:26.647Z,18.50
2022-12-15T18:29:53.840Z,18.70
2022-12-15T18:32:25.889Z,18.80
2022-12-15T18:34:53.796Z,18.90
2022-12-15T18:37:22.928Z,19.10
2022-12-15T18:39:50.878Z,19.20
2022-12-15T18:42:20.349Z,19.30
2022-12-15T18:44:52.271Z,19.40
2022-12-15T18:47:22.398Z,19.40
2022-12-15T18:49:49.440Z,19.50
2022-12-15T18:52:25.641Z,19.60
2022-12-15T18:54:54.578Z,19.70
2022-12-15T18:57:29.023Z,19.70
2022-12-15T19:00:18.619Z,19.80
2022-12-15T19:02:45.653Z,19.80
2022-12-15T19:05:27.525Z,19.80
2022-12-15T19:08:10.786Z,19.80
2022-12-15T19:10:48.810Z,19.80
2022-12-15T19:13:18.279Z,19.90
2022-12-15T19:15:44.961Z,19.90
2022-12-15T19:18:34.642Z,19.90
2022-12-15T19:21:33.181Z,19.90
2022-12-15T19:24:00.321Z,19.90
2022-12-15T19:26:27.029Z,19.90
2022-12-15T19:28:53.737Z,19.90
2022-12-15T19:31:20.540Z,19.90
2022-12-15T19:33:47.365Z,20.00
2022-12-15T19:36:23.612Z,20.00
2022-12-15T19:38:54.095Z,20.00
2022-12-15T19:41:21.008Z,20.00
2022-12-15T19:43:47.675Z,20.00
2022-12-15T19:46:19.418Z,20.00
2022-12-15T19:48:47.951Z,20.10
2022-12-15T19:51:25.191Z,20.10
2022-12-15T19:53:53.552Z,20.10
2022-12-15T19:56:28.398Z,20.10
2022-12-15T19:58:58.427Z,20.10
2022-12-15T20:01:31.605Z,20.10
2022-12-15T20:03:58.512Z,20.10
2022-12-15T20:06:26.850Z,20.20
2022-12-15T20:08:55.946Z,20.20
2022-12-15T20:11:26.315Z,20.20
2022-12-15T20:13:53.828Z,20.30
2022-12-15T20:16:21.311Z,20.30
2022-12-15T20:18:50.815Z,20.30
2022-12-15T20:21:22.269Z,20.30
2022-12-15T20:23:57.436Z,20.30
2022-12-15T20:26:25.457Z,20.30
2022-12-15T20:28:53.249Z,20.30
2022-12-15T20:31:22.982Z,20.30
2022-12-15T20:33:50.282Z,20.30
2022-12-15T20:36:30.561Z,20.20
2022-12-15T20:38:57.545Z,20.20
2022-12-15T20:41:27.665Z,20.20
2022-12-15T20:43:55.611Z,20.20
2022-12-15T20:46:29.026Z,20.10
2022-12-15T20:48:56.410Z,20.10
2022-12-15T20:51:27.841Z,20.10
2022-12-15T20:53:56.974Z,20.00
2022-12-15T20:56:24.262Z,20.00
2022-12-15T20:58:53.333Z,20.00
2022-12-15T21:01:26.393Z,19.90
2022-12-15T21:03:57.989Z,19.90
2022-12-15T21:06:26.383Z,19.80
2022-12-15T21:08:53.812Z,19.80
2022-12-15T21:11:26.256Z,19.80
2022-12-15T21:13:56.398Z,19.70
2022-12-15T21:16:26.352Z,19.70
2022-12-15T21:21:44.432Z,19.60
2022-12-15T21:24:18.922Z,19.50
2022-12-15T21:26:46.373Z,19.40
2022-12-15T21:29:19.479Z,19.40
2022-12-15T21:31:46.704Z,19.40
2022-12-15T21:34:13.952Z,19.30
2022-12-15T21:36:42.456Z,19.20
2022-12-15T21:39:15.431Z,19.20
2022-12-15T21:41:43.321Z,19.10
2022-12-15T21:44:13.860Z,19.10
2022-12-15T21:46:41.200Z,19.00
2022-12-15T21:49:17.377Z,19.00
2022-12-15T21:51:53.232Z,19.00
2022-12-15T21:54:32.435Z,18.90
2022-12-15T21:57:05.519Z,18.80
2022-12-15T21:59:32.916Z,18.80
2022-12-15T22:02:01.060Z,18.70
2022-12-15T22:04:34.394Z,18.70
2022-12-15T22:07:01.780Z,18.60
2022-12-15T22:09:28.664Z,18.50
2022-12-15T22:11:56.540Z,18.50
2022-12-15T22:14:32.933Z,18.50
2022-12-15T22:17:01.674Z,18.40
2022-12-15T22:19:28.431Z,18.40
2022-12-15T22:21:55.222Z,18.30
2022-12-15T22:24:22.060Z,18.30
2022-12-15T22:26:48.966Z,18.20
2022-12-15T22:29:21.295Z,18.20
2022-12-15T22:31:49.581Z,18.10
2022-12-15T22:34:21.509Z,18.10
2022-12-15T22:36:49.416Z,18.00
2022-12-15T22:39:18.779Z,18.00
2022-12-15T22:41:51.193Z,18.00
2022-12-15T22:44:25.000Z,18.00
2022-12-15T22:46:54.283Z,17.90
2022-12-15T22:49:40.309Z,17.90
2022-12-15T22:52:19.294Z,17.90
2022-12-15T22:54:46.499Z,17.80
2022-12-15T22:57:22.968Z,17.80
2022-12-15T23:00:02.729Z,17.80
2022-12-15T23:02:33.545Z,17.70
2022-12-15T23:05:00.620Z,17.70
2022-12-15T23:07:28.146Z,17.60
2022-12-15T23:10:14.793Z,17.60
2022-12-15T23:12:41.578Z,17.60
2022-12-15T23:15:27.961Z,17.50
2022-12-15T23:17:54.736Z,17.50
2022-12-15T23:20:21.767Z,17.40
2022-12-15T23:22:48.575Z,17.40
2022-12-15T23:25:16.072Z,17.40
2022-12-15T23:27:42.752Z,17.30
2022-12-15T23:30:10.419Z,17.30
2022-12-15T23:32:38.569Z,17.20
2022-12-15T23:35:06.364Z,17.20
2022-12-15T23:37:33.913Z,17.20
2022-12-15T23:40:00.657Z,17.10
2022-12-15T23:42:27.429Z,17.10
2022-12-15T23:44:54.270Z,17.10
2022-12-15T23:47:21.828Z,17.10
2022-12-15T23:49:48.561Z,17.00
2022-12-15T23:52:15.349Z,17.00
2022-12-15T23:54:42.070Z,16.90
2022-12-15T23:57:08.803Z,16.90
2022-12-15T23:59:35.503Z,16.90
